createdAt,value
2022-10-23T00:01:54.601Z,16.21
2022-10-23T00:04:29.566Z,16.18
2022-10-23T00:06:58.434Z,16.12
2022-10-23T00:09:25.389Z,16.00
2022-10-23T00:11:54.994Z,16.03
2022-10-23T00:14:24.970Z,15.88
2022-10-23T00:16:56.390Z,15.90
2022-10-23T00:19:23.249Z,15.95
2022-10-23T00:21:50.097Z,15.96
2022-10-23T00:24:16.904Z,16.02
2022-10-23T00:26:46.405Z,15.96
2022-10-23T00:29:13.186Z,15.77
2022-10-23T00:31:44.598Z,15.78
2022-10-23T00:34:11.555Z,15.71
2022-10-23T00:36:39.424Z,15.60
2022-10-23T00:39:06.885Z,15.68
2022-10-23T00:41:34.050Z,15.72
2022-10-23T00:44:29.664Z,15.71
2022-10-23T00:46:58.222Z,15.55
2022-10-23T00:49:25.608Z,15.54
2022-10-23T00:51:57.693Z,15.54
2022-10-23T00:54:33.299Z,15.46
2022-10-23T00:57:04.024Z,15.51
2022-10-23T00:59:39.013Z,15.51
2022-10-23T01:02:06.577Z,15.45
2022-10-23T01:04:36.562Z,15.33
2022-10-23T01:07:35.677Z,15.31
2022-10-23T01:10:25.296Z,15.30
2022-10-23T01:13:20.226Z,15.36
2022-10-23T01:16:08.235Z,15.18
2022-10-23T01:19:07.598Z,15.15
2022-10-23T01:21:45.633Z,15.09
2022-10-23T01:24:31.396Z,15.02
2022-10-23T01:27:13.124Z,14.91
2022-10-23T01:29:55.604Z,14.68
2022-10-23T01:32:36.538Z,14.67
2022-10-23T01:35:15.506Z,14.28
2022-10-23T01:37:56.454Z,14.44
2022-10-23T01:40:43.513Z,14.31
2022-10-23T01:43:27.132Z,14.44
2022-10-23T01:46:03.317Z,14.28
2022-10-23T01:48:32.151Z,14.51
2022-10-23T01:51:03.765Z,14.55
2022-10-23T01:53:34.578Z,14.51
2022-10-23T01:56:06.493Z,14.51
2022-10-23T01:58:37.569Z,14.40
2022-10-23T02:01:07.775Z,14.13
2022-10-23T02:03:39.347Z,14.23
2022-10-23T02:06:06.533Z,14.28
2022-10-23T02:08:33.569Z,14.31
2022-10-23T02:11:28.795Z,14.22
2022-10-23T02:14:04.498Z,14.33
2022-10-23T02:16:50.056Z,14.29
2022-10-23T02:19:58.056Z,14.39
2022-10-23T02:22:39.188Z,14.45
2022-10-23T02:25:12.790Z,14.53
2022-10-23T02:27:50.817Z,14.57
2022-10-23T02:30:19.523Z,14.44
2022-10-23T02:32:59.681Z,14.27
2022-10-23T02:35:26.804Z,14.29
2022-10-23T02:38:00.308Z,14.26
2022-10-23T02:40:42.225Z,14.23
2022-10-23T02:43:24.716Z,14.21
2022-10-23T02:46:06.735Z,14.14
2022-10-23T02:48:46.015Z,13.96
2022-10-23T02:51:45.752Z,13.99
2022-10-23T02:54:30.337Z,13.84
2022-10-23T02:57:33.331Z,13.77
2022-10-23T03:00:17.101Z,14.07
2022-10-23T03:03:30.391Z,14.04
2022-10-23T03:05:57.270Z,14.02
2022-10-23T03:08:27.194Z,14.00
2022-10-23T03:10:58.641Z,13.98
2022-10-23T03:13:25.941Z,13.81
2022-10-23T03:15:52.776Z,13.82
2022-10-23T03:18:19.570Z,13.76
2022-10-23T03:20:46.359Z,13.78
2022-10-23T03:23:14.017Z,13.85
2022-10-23T03:25:40.885Z,13.81
2022-10-23T03:28:12.369Z,13.80
2022-10-23T03:30:39.205Z,13.82
2022-10-23T03:33:05.987Z,13.86
2022-10-23T03:35:35.384Z,13.87
2022-10-23T03:38:02.283Z,13.94
2022-10-23T03:40:33.649Z,13.93
2022-10-23T03:43:00.417Z,13.87
2022-10-23T03:45:27.455Z,13.94
2022-10-23T03:47:54.331Z,13.94
2022-10-23T03:50:21.418Z,13.78
2022-10-23T03:52:50.598Z,13.84
2022-10-23T03:55:20.460Z,13.74
2022-10-23T03:57:49.479Z,13.66
2022-10-23T04:00:16.917Z,13.64
2022-10-23T04:02:44.210Z,13.64
2022-10-23T04:05:11.778Z,13.55
2022-10-23T04:07:38.577Z,13.55
2022-10-23T04:10:06.433Z,13.54
2022-10-23T04:12:36.910Z,13.67
2022-10-23T04:15:04.650Z,13.71
2022-10-23T04:17:33.983Z,13.68
2022-10-23T04:20:00.791Z,13.83
2022-10-23T04:22:28.578Z,13.74
2022-10-23T04:24:56.213Z,13.75
2022-10-23T04:27:23.272Z,13.81
2022-10-23T04:29:55.500Z,13.81
2022-10-23T04:32:25.135Z,13.60
2022-10-23T04:34:54.176Z,13.71
2022-10-23T04:37:23.073Z,13.53
2022-10-23T04:39:52.841Z,13.61
2022-10-23T04:42:20.327Z,13.52
2022-10-23T04:44:51.845Z,13.54
2022-10-23T04:47:18.862Z,13.42
2022-10-23T04:49:45.653Z,13.22
2022-10-23T04:52:15.019Z,13.31
2022-10-23T04:54:41.849Z,13.41
2022-10-23T04:57:08.718Z,13.38
2022-10-23T04:59:35.615Z,13.16
2022-10-23T05:02:02.606Z,13.43
2022-10-23T05:04:31.633Z,13.15
2022-10-23T05:06:58.515Z,13.01
2022-10-23T05:09:30.132Z,12.84
2022-10-23T05:11:59.449Z,12.87
2022-10-23T05:14:26.231Z,12.96
2022-10-23T05:17:07.383Z,12.96
2022-10-23T05:19:42.652Z,12.82
2022-10-23T05:22:11.135Z,12.70
2022-10-23T05:24:40.358Z,12.84
2022-10-23T05:27:07.256Z,12.89
2022-10-23T05:29:34.036Z,12.93
2022-10-23T05:32:05.585Z,13.04
2022-10-23T05:34:36.814Z,13.08
2022-10-23T05:37:09.592Z,12.98
2022-10-23T05:39:36.712Z,12.83
2022-10-23T05:42:03.732Z,12.80
2022-10-23T05:44:33.076Z,12.69
2022-10-23T05:47:02.822Z,12.73
2022-10-23T05:49:31.882Z,12.78
2022-10-23T05:51:58.724Z,12.77
2022-10-23T05:54:25.599Z,13.15
2022-10-23T05:56:52.429Z,13.33
2022-10-23T05:59:23.768Z,13.33
2022-10-23T06:01:50.743Z,13.38
2022-10-23T06:04:20.007Z,13.19
2022-10-23T06:06:49.575Z,13.04
2022-10-23T06:09:19.030Z,13.18
2022-10-23T06:11:51.383Z,13.14
2022-10-23T06:14:18.461Z,13.19
2022-10-23T06:16:47.607Z,13.06
2022-10-23T06:19:14.390Z,13.01
2022-10-23T06:21:45.880Z,13.27
2022-10-23T06:24:12.731Z,13.39
2022-10-23T06:26:39.515Z,13.24
2022-10-23T06:29:06.368Z,13.40
2022-10-23T06:31:35.764Z,13.45
2022-10-23T06:34:06.005Z,13.58
2022-10-23T06:36:37.893Z,13.48
2022-10-23T06:39:05.403Z,13.45
2022-10-23T06:41:41.954Z,13.64
2022-10-23T06:44:11.480Z,13.87
2022-10-23T06:46:40.823Z,14.14
2022-10-23T06:49:07.629Z,14.22
2022-10-23T06:51:34.453Z,14.37
2022-10-23T06:54:03.461Z,14.34
2022-10-23T06:56:32.596Z,14.46
2022-10-23T06:58:59.389Z,14.54
2022-10-23T07:01:26.386Z,14.45
2022-10-23T07:03:55.489Z,14.64
2022-10-23T07:06:22.350Z,14.84
2022-10-23T07:08:49.634Z,15.08
2022-10-23T07:11:16.492Z,15.47
2022-10-23T07:13:46.574Z,15.63
2022-10-23T07:16:20.270Z,16.70
2022-10-23T07:18:48.951Z,18.06
2022-10-23T07:21:18.118Z,18.86
2022-10-23T07:23:44.928Z,19.49
2022-10-23T07:26:15.630Z,19.95
2022-10-23T07:28:44.774Z,20.14
2022-10-23T07:31:14.549Z,20.61
2022-10-23T07:33:44.462Z,20.60
2022-10-23T07:36:11.324Z,20.46
2022-10-23T07:38:38.172Z,20.07
2022-10-23T07:41:08.915Z,19.54
2022-10-23T07:43:40.954Z,20.24
2022-10-23T07:46:10.949Z,20.39
2022-10-23T07:48:38.772Z,19.79
2022-10-23T07:51:11.330Z,20.45
2022-10-23T07:53:40.932Z,21.40
2022-10-23T07:56:22.797Z,22.11
2022-10-23T07:58:56.652Z,22.41
2022-10-23T08:01:39.314Z,23.99
2022-10-23T08:04:06.419Z,24.97
2022-10-23T08:06:35.942Z,25.89
2022-10-23T08:09:06.298Z,26.12
2022-10-23T08:11:35.742Z,26.79
2022-10-23T08:14:09.922Z,27.59
2022-10-23T08:16:38.387Z,28.08
2022-10-23T08:19:09.133Z,28.62
2022-10-23T08:21:38.782Z,29.49
2022-10-23T08:24:13.706Z,29.22
2022-10-23T08:26:40.583Z,28.87
2022-10-23T08:29:09.479Z,29.75
2022-10-23T08:31:40.851Z,29.68
2022-10-23T08:34:10.394Z,29.68
2022-10-23T08:36:39.157Z,29.04
2022-10-23T08:39:06.845Z,29.20
2022-10-23T08:41:45.385Z,29.16
2022-10-23T08:44:27.115Z,28.51
2022-10-23T08:47:12.575Z,27.54
2022-10-23T08:49:51.185Z,26.99
2022-10-23T08:52:27.861Z,26.53
2022-10-23T08:55:25.090Z,25.81
2022-10-23T08:58:17.051Z,26.29
2022-10-23T09:00:46.756Z,27.12
2022-10-23T09:03:14.112Z,27.42
2022-10-23T09:06:05.904Z,26.66
2022-10-23T09:09:05.592Z,25.98
2022-10-23T09:11:57.336Z,25.44
2022-10-23T09:14:48.178Z,24.21
2022-10-23T09:17:32.825Z,24.04
2022-10-23T09:20:34.636Z,24.22
2022-10-23T09:23:13.820Z,25.02
2022-10-23T09:25:46.378Z,25.38
2022-10-23T09:28:25.927Z,25.86
2022-10-23T09:31:06.634Z,24.94
2022-10-23T09:33:37.221Z,23.83
2022-10-23T09:36:08.344Z,23.96
2022-10-23T09:38:37.715Z,24.02
2022-10-23T09:41:20.429Z,24.19
2022-10-23T09:43:48.207Z,24.53
2022-10-23T09:46:15.074Z,24.26
2022-10-23T09:48:44.670Z,24.17
2022-10-23T09:51:21.239Z,23.89
2022-10-23T09:53:57.713Z,22.91
2022-10-23T09:56:34.650Z,22.93
2022-10-23T09:59:13.463Z,22.70
2022-10-23T10:01:47.824Z,22.30
2022-10-23T10:04:14.836Z,22.35
2022-10-23T10:06:42.655Z,22.53
2022-10-23T10:09:18.996Z,22.16
2022-10-23T10:11:56.568Z,21.73
2022-10-23T10:15:29.946Z,21.20
2022-10-23T10:18:17.174Z,20.89
2022-10-23T10:20:58.053Z,20.78
2022-10-23T10:24:00.494Z,21.37
2022-10-23T10:26:44.525Z,21.71
2022-10-23T10:29:41.547Z,21.78
2022-10-23T10:32:32.216Z,21.79
2022-10-23T10:35:37.175Z,22.28
2022-10-23T10:38:31.777Z,22.56
2022-10-23T10:41:19.726Z,22.64
2022-10-23T10:44:24.362Z,22.62
2022-10-23T10:47:33.822Z,22.06
2022-10-23T10:50:25.513Z,22.88
2022-10-23T10:53:04.443Z,23.52
2022-10-23T10:55:41.342Z,23.57
2022-10-23T10:58:40.509Z,24.12
2022-10-23T11:01:30.883Z,24.73
2022-10-23T11:04:15.396Z,24.55
2022-10-23T11:06:46.370Z,24.98
2022-10-23T11:09:32.172Z,25.22
2022-10-23T11:11:59.250Z,26.33
2022-10-23T11:14:29.736Z,25.92
2022-10-23T11:17:20.396Z,26.04
2022-10-23T11:20:07.832Z,25.63
2022-10-23T11:22:46.574Z,24.77
2022-10-23T11:26:02.984Z,24.71
2022-10-23T11:28:48.258Z,23.59
2022-10-23T11:31:52.580Z,23.01
2022-10-23T11:34:31.999Z,22.54
2022-10-23T11:37:01.643Z,22.55
2022-10-23T11:39:31.675Z,22.54
2022-10-23T11:42:04.531Z,22.65
2022-10-23T11:44:48.287Z,22.59
2022-10-23T11:47:40.795Z,21.92
2022-10-23T11:50:07.563Z,21.80
2022-10-23T11:53:20.926Z,22.11
2022-10-23T11:56:20.384Z,22.33
2022-10-23T11:58:49.415Z,22.85
2022-10-23T12:01:45.577Z,22.86
2022-10-23T12:04:15.662Z,22.99
2022-10-23T12:06:54.118Z,22.50
2022-10-23T12:09:31.655Z,22.47
2022-10-23T12:12:34.193Z,22.98
2022-10-23T12:15:09.874Z,23.58
2022-10-23T12:17:42.147Z,23.92
2022-10-23T12:20:12.092Z,23.52
2022-10-23T12:22:56.727Z,23.63
2022-10-23T12:26:00.593Z,23.34
2022-10-23T12:29:07.434Z,22.73
2022-10-23T12:32:24.003Z,23.14
2022-10-23T12:35:18.168Z,23.65
2022-10-23T12:37:58.273Z,23.52
2022-10-23T12:40:30.059Z,23.86
2022-10-23T12:43:00.583Z,23.92
2022-10-23T12:45:43.183Z,23.86
2022-10-23T12:48:21.455Z,24.16
2022-10-23T12:50:51.139Z,24.00
2022-10-23T12:53:23.333Z,23.48
2022-10-23T12:58:34.957Z,23.01
2022-10-23T13:01:05.234Z,23.51
2022-10-23T13:03:34.276Z,23.30
2022-10-23T13:06:04.650Z,23.25
2022-10-23T13:08:44.656Z,23.86
2022-10-23T13:11:21.289Z,23.79
2022-10-23T13:13:49.393Z,23.10
2022-10-23T13:16:29.134Z,22.91
2022-10-23T13:18:58.177Z,22.45
2022-10-23T13:21:30.104Z,22.26
2022-10-23T13:23:59.853Z,21.78
2022-10-23T13:26:45.130Z,21.54
2022-10-23T13:29:44.225Z,21.34
2022-10-23T13:32:31.366Z,21.38
2022-10-23T13:35:10.105Z,21.24
2022-10-23T13:37:48.314Z,21.41
2022-10-23T13:40:33.084Z,21.10
2022-10-23T13:43:00.129Z,20.92
2022-10-23T13:45:27.385Z,21.13
2022-10-23T13:47:57.477Z,21.52
2022-10-23T13:50:24.347Z,21.44
2022-10-23T13:52:53.730Z,21.24
2022-10-23T13:55:26.920Z,21.51
2022-10-23T13:57:53.797Z,21.32
2022-10-23T14:00:20.743Z,21.22
2022-10-23T14:02:47.911Z,20.94
2022-10-23T14:05:19.318Z,20.90
2022-10-23T14:07:46.645Z,20.58
2022-10-23T14:10:13.629Z,20.49
2022-10-23T14:12:46.804Z,20.37
2022-10-23T14:15:16.464Z,20.44
2022-10-23T14:17:46.213Z,20.66
2022-10-23T14:20:13.258Z,20.33
2022-10-23T14:22:42.798Z,20.53
2022-10-23T14:25:10.125Z,20.38
2022-10-23T14:27:36.979Z,20.14
2022-10-23T14:30:05.046Z,20.29
2022-10-23T14:32:32.184Z,20.31
2022-10-23T14:35:03.759Z,20.18
2022-10-23T14:37:31.652Z,20.02
2022-10-23T14:39:58.860Z,19.66
2022-10-23T14:42:34.001Z,19.79
2022-10-23T14:45:04.708Z,19.98
2022-10-23T14:47:32.341Z,19.83
2022-10-23T14:50:01.519Z,19.77
2022-10-23T14:52:30.718Z,19.58
2022-10-23T14:55:01.529Z,19.82
2022-10-23T14:57:30.864Z,19.62
2022-10-23T14:59:57.715Z,19.81
2022-10-23T15:02:24.544Z,19.95
2022-10-23T15:04:51.377Z,19.47
2022-10-23T15:07:18.214Z,19.68
2022-10-23T15:09:47.303Z,19.85
2022-10-23T15:12:14.092Z,19.67
2022-10-23T15:14:40.923Z,19.66
2022-10-23T15:17:15.389Z,19.70
2022-10-23T15:19:42.692Z,19.61
2022-10-23T15:22:09.669Z,19.74
2022-10-23T15:24:36.601Z,19.81
2022-10-23T15:29:39.587Z,19.92
2022-10-23T15:32:07.776Z,19.77
2022-10-23T15:34:37.630Z,19.62
2022-10-23T15:37:04.541Z,19.68
2022-10-23T15:39:38.568Z,19.88
2022-10-23T15:42:08.473Z,19.53
2022-10-23T15:44:35.343Z,19.29
2022-10-23T15:47:05.214Z,19.31
2022-10-23T15:49:32.686Z,19.20
2022-10-23T15:52:03.373Z,19.15
2022-10-23T15:54:32.799Z,19.37
2022-10-23T15:57:01.453Z,19.18
2022-10-23T15:59:32.679Z,19.02
2022-10-23T16:01:59.745Z,19.07
2022-10-23T16:04:29.130Z,19.04
2022-10-23T16:06:58.485Z,18.98
2022-10-23T16:09:27.891Z,18.93
2022-10-23T16:11:59.387Z,18.88
2022-10-23T16:14:26.234Z,19.09
2022-10-23T16:16:57.873Z,18.91
2022-10-23T16:19:27.177Z,18.67
2022-10-23T16:22:01.085Z,18.34
2022-10-23T16:24:27.944Z,18.40
2022-10-23T16:26:57.461Z,18.52
2022-10-23T16:29:25.838Z,18.48
2022-10-23T16:31:54.192Z,18.63
2022-10-23T16:34:23.735Z,18.45
2022-10-23T16:36:53.089Z,18.50
2022-10-23T16:39:20.679Z,18.55
2022-10-23T16:41:53.074Z,18.50
2022-10-23T16:44:22.896Z,18.51
2022-10-23T16:46:54.414Z,18.59
2022-10-23T16:49:21.229Z,18.47
2022-10-23T16:51:48.074Z,18.66
2022-10-23T16:54:17.943Z,18.64
2022-10-23T16:56:48.368Z,18.66
2022-10-23T16:59:15.510Z,18.67
2022-10-23T17:01:42.521Z,18.69
2022-10-23T17:04:09.522Z,18.65
2022-10-23T17:06:36.934Z,18.59
2022-10-23T17:09:08.549Z,18.50
2022-10-23T17:11:39.550Z,18.44
2022-10-23T17:14:15.904Z,18.55
2022-10-23T17:16:46.993Z,18.33
2022-10-23T17:19:44.677Z,18.18
2022-10-23T17:22:10.685Z,18.21
2022-10-23T17:24:42.259Z,18.29
2022-10-23T17:27:11.715Z,18.42
2022-10-23T17:29:40.930Z,18.32
2022-10-23T17:32:10.150Z,18.31
2022-10-23T17:34:37.049Z,18.30
2022-10-23T17:37:04.004Z,18.27
2022-10-23T17:39:33.172Z,18.27
2022-10-23T17:42:00.024Z,18.09
2022-10-23T17:44:26.910Z,18.31
2022-10-23T17:46:55.063Z,18.35
2022-10-23T17:49:25.930Z,18.29
2022-10-23T17:51:56.402Z,18.27
2022-10-23T17:54:25.689Z,18.23
2022-10-23T17:56:55.436Z,18.25
2022-10-23T17:59:27.428Z,18.22
2022-10-23T18:02:00.065Z,17.90
2022-10-23T18:04:26.988Z,17.87
2022-10-23T18:06:56.373Z,17.90
2022-10-23T18:09:24.105Z,17.73
2022-10-23T18:11:51.770Z,17.87
2022-10-23T18:14:25.144Z,17.96
2022-10-23T18:16:56.903Z,17.78
2022-10-23T18:19:23.758Z,17.82
2022-10-23T18:21:50.664Z,17.90
2022-10-23T18:24:18.471Z,17.96
2022-10-23T18:26:48.374Z,17.77
2022-10-23T18:29:20.713Z,17.74
2022-10-23T18:31:50.728Z,17.80
2022-10-23T18:34:26.878Z,17.74
2022-10-23T18:36:57.056Z,17.72
2022-10-23T18:39:27.209Z,17.66
2022-10-23T18:41:57.670Z,17.87
2022-10-23T18:44:29.190Z,17.86
2022-10-23T18:47:00.900Z,17.89
2022-10-23T18:49:30.594Z,18.05
2022-10-23T18:51:58.526Z,18.22
2022-10-23T18:54:27.678Z,18.28
2022-10-23T18:56:59.127Z,18.26
2022-10-23T18:59:28.484Z,18.23
2022-10-23T19:01:55.585Z,18.02
2022-10-23T19:04:22.589Z,17.79
2022-10-23T19:06:50.666Z,17.72
2022-10-23T19:09:20.503Z,17.88
2022-10-23T19:11:52.168Z,17.87
2022-10-23T19:14:19.039Z,17.38
2022-10-23T19:16:45.795Z,17.67
2022-10-23T19:19:26.704Z,17.77
2022-10-23T19:21:54.680Z,17.70
2022-10-23T19:24:57.092Z,17.77
2022-10-23T19:27:26.047Z,17.79
2022-10-23T19:29:54.502Z,17.95
2022-10-23T19:32:23.614Z,17.88
2022-10-23T19:34:50.490Z,17.87
2022-10-23T19:37:19.854Z,17.68
2022-10-23T19:39:46.749Z,17.65
2022-10-23T19:42:15.710Z,17.64
2022-10-23T19:44:45.044Z,17.64
2022-10-23T19:47:14.890Z,17.56
2022-10-23T19:49:41.710Z,17.67
2022-10-23T19:52:11.084Z,17.82
2022-10-23T19:54:41.519Z,17.80
2022-10-23T19:57:08.389Z,17.67
2022-10-23T19:59:35.233Z,17.68
2022-10-23T20:02:04.847Z,17.75
2022-10-23T20:04:31.915Z,17.79
2022-10-23T20:06:58.811Z,17.79
2022-10-23T20:09:28.178Z,18.06
2022-10-23T20:11:58.123Z,17.72
2022-10-23T20:14:24.930Z,17.88
2022-10-23T20:16:55.673Z,17.77
2022-10-23T20:19:22.919Z,17.74
2022-10-23T20:21:50.322Z,17.93
2022-10-23T20:24:19.598Z,17.88
2022-10-23T20:26:50.748Z,17.86
2022-10-23T20:29:21.029Z,17.80
2022-10-23T20:31:48.654Z,18.01
2022-10-23T20:34:15.477Z,18.15
2022-10-23T20:36:48.040Z,18.03
2022-10-23T20:39:19.419Z,18.00
2022-10-23T20:41:46.663Z,18.12
2022-10-23T20:46:49.137Z,18.00
2022-10-23T20:49:22.129Z,17.91
2022-10-23T20:51:55.639Z,18.10
2022-10-23T20:54:29.048Z,18.13
2022-10-23T20:56:57.049Z,17.90
2022-10-23T20:59:26.505Z,18.11
2022-10-23T21:01:57.298Z,18.01
2022-10-23T21:04:27.553Z,18.19
2022-10-23T21:07:09.961Z,18.02
2022-10-23T21:09:39.992Z,18.00
2022-10-23T21:12:08.186Z,18.00
2022-10-23T21:14:36.226Z,17.93
2022-10-23T21:17:03.132Z,18.06
2022-10-23T21:19:29.964Z,18.15
2022-10-23T21:21:57.333Z,18.39
2022-10-23T21:24:24.594Z,18.45
2022-10-23T21:26:55.916Z,18.27
2022-10-23T21:29:22.713Z,18.27
2022-10-23T21:31:59.339Z,18.29
2022-10-23T21:34:29.914Z,18.42
2022-10-23T21:37:17.893Z,18.20
2022-10-23T21:39:48.158Z,18.20
2022-10-23T21:42:17.711Z,18.24
2022-10-23T21:44:44.697Z,18.54
2022-10-23T21:47:16.854Z,18.58
2022-10-23T21:49:46.086Z,18.76
2022-10-23T21:52:15.043Z,18.79
2022-10-23T21:54:50.966Z,18.81
2022-10-23T21:57:17.772Z,18.76
2022-10-23T21:59:44.615Z,18.82
2022-10-23T22:02:14.717Z,18.72
2022-10-23T22:04:44.332Z,18.49
2022-10-23T22:07:14.898Z,18.06
2022-10-23T22:09:42.615Z,17.66
2022-10-23T22:12:12.549Z,17.64
2022-10-23T22:14:42.519Z,17.36
2022-10-23T22:17:09.376Z,17.34
2022-10-23T22:19:36.190Z,17.21
2022-10-23T22:22:05.540Z,17.22
2022-10-23T22:24:35.314Z,17.19
2022-10-23T22:27:02.128Z,17.18
2022-10-23T22:29:29.864Z,17.34
2022-10-23T22:31:57.674Z,17.32
2022-10-23T22:37:23.358Z,17.18
2022-10-23T22:39:52.021Z,16.90
2022-10-23T22:42:22.564Z,16.83
2022-10-23T22:44:51.438Z,16.99
2022-10-23T22:47:20.651Z,17.02
2022-10-23T22:49:52.093Z,17.00
2022-10-23T22:52:18.878Z,16.82
2022-10-23T22:54:45.800Z,16.53
2022-10-23T22:57:12.669Z,16.58
2022-10-23T22:59:39.544Z,16.61
2022-10-23T23:02:06.388Z,16.55
2022-10-23T23:04:38.354Z,16.70
2022-10-23T23:07:11.636Z,16.90
2022-10-23T23:09:41.451Z,16.71
2022-10-23T23:12:10.863Z,16.45
2022-10-23T23:14:38.002Z,16.48
2022-10-23T23:17:05.992Z,16.73
2022-10-23T23:19:33.102Z,16.55
2022-10-23T23:22:02.920Z,16.50
2022-10-23T23:24:34.806Z,16.59
2022-10-23T23:27:01.643Z,16.50
2022-10-23T23:29:31.552Z,16.65
2022-10-23T23:32:06.023Z,16.65
2022-10-23T23:34:35.003Z,16.59
2022-10-23T23:37:04.823Z,16.67
2022-10-23T23:39:31.676Z,16.59
2022-10-23T23:41:58.512Z,16.53
2022-10-23T23:44:25.484Z,16.61
2022-10-23T23:46:55.917Z,16.86
2022-10-23T23:49:26.369Z,16.71
2022-10-23T23:51:53.287Z,16.69
2022-10-23T23:54:20.121Z,16.81
2022-10-23T23:56:47.041Z,16.65
2022-10-23T23:59:13.953Z,16.63
